Time;durP1;ratioP1;P1;durP2;ratioP2;P2;SDS_P1;SDS_P2;PMS_P1;PMS_P2;Temp;Humidity;BMP_temperature;BMP_pressure;BME280_temperature;BME280_humidity;BME280_pressure;Samples;Min_cycle;Max_cycle;Signal;HPM_P1;HPM_P2
2022/02/05 00:03:07;;;;;;;34.83;20.17;;;;;;;9.35;68.76;101393.16;5010438;28;20474;-65
2022/02/05 00:05:41;;;;;;;33.80;20.30;;;;;;;9.37;68.72;101399.16;5009959;28;20042;-65
2022/02/05 00:43:08;;;;;;;31.73;20.65;;;;;;;9.23;68.87;101389.25;5008453;28;20510;-65
2022/02/05 00:45:39;;;;;;;29.02;20.25;;;;;;;9.23;68.87;101384.00;5009473;28;20056;-65
2022/02/05 00:48:06;;;;;;;32.30;19.98;;;;;;;9.21;68.96;101389.31;5012242;28;20046;-65
2022/02/05 00:50:37;;;;;;;29.20;20.42;;;;;;;9.22;68.89;101388.41;5012540;28;20045;-65
2022/02/05 00:53:13;;;;;;;35.00;20.52;;;;;;;9.20;68.87;101386.75;5011801;28;20046;-65
2022/02/05 00:55:44;;;;;;;34.58;21.75;;;;;;;9.20;68.95;101386.75;5012726;28;20069;-65
2022/02/05 00:58:11;;;;;;;33.47;21.67;;;;;;;9.19;68.89;101385.03;5012689;28;20050;-65
2022/02/05 01:00:38;;;;;;;36.25;21.40;;;;;;;9.19;68.71;101391.13;5012767;28;20057;-65
2022/02/05 01:03:05;;;;;;;29.13;20.00;;;;;;;9.22;68.95;101398.00;5012647;28;20050;-65
2022/02/05 01:05:35;;;;;;;31.42;20.38;;;;;;;9.20;69.03;101395.44;5012533;28;20050;-65
2022/02/05 01:08:02;;;;;;;29.35;20.48;;;;;;;9.20;69.04;101392.00;5011872;28;20042;-65
2022/02/05 01:10:29;;;;;;;31.30;19.85;;;;;;;9.19;69.17;101395.53;5015345;28;20557;-65
2022/02/05 01:13:04;;;;;;;30.27;20.02;;;;;;;9.18;69.24;101399.03;5016898;28;20050;-65
2022/02/05 01:15:52;;;;;;;29.50;20.33;;;;;;;9.18;69.19;101407.78;5016693;28;20050;-65
2022/02/05 01:18:21;;;;;;;34.40;20.25;;;;;;;9.18;69.35;101399.91;5016496;28;20046;-65
2022/02/05 01:23:39;;;;;;;31.27;20.90;;;;;;;9.15;69.35;101398.28;5016587;28;20050;-65
2022/02/05 01:26:30;;;;;;;33.85;22.17;;;;;;;9.12;69.23;101406.22;5015415;28;20502;-65
2022/02/05 01:29:03;;;;;;;34.05;21.98;;;;;;;9.12;69.42;101408.00;5016257;28;20115;-65
2022/02/05 01:31:36;;;;;;;35.28;22.13;;;;;;;9.12;69.38;101401.00;5016196;28;20059;-65
2022/02/05 01:34:18;;;;;;;30.33;22.10;;;;;;;9.13;69.37;101414.97;5016176;28;20482;-65
2022/02/05 01:50:34;;;;;;;31.80;20.77;;;;;;;9.05;69.52;101394.28;5015825;28;20056;-65
2022/02/05 01:53:13;;;;;;;29.67;20.67;;;;;;;9.08;69.29;101398.59;5015802;28;20129;-65
2022/02/05 02:11:57;;;;;;;33.35;21.90;;;;;;;8.94;69.48;101415.66;5015508;28;20045;-66
2022/02/05 02:20:10;;;;;;;30.40;20.13;;;;;;;8.91;69.33;101414.94;5015028;28;20446;-65
2022/02/05 02:30:35;;;;;;;28.48;19.13;;;;;;;8.88;69.13;101415.91;4995939;28;20053;-65
2022/02/05 02:33:14;;;;;;;30.30;20.85;;;;;;;8.89;69.09;101407.16;5014250;28;20107;-65
2022/02/05 02:35:45;;;;;;;29.90;20.02;;;;;;;8.91;68.91;101417.56;5015237;28;20046;-65
2022/02/05 02:38:15;;;;;;;26.25;20.02;;;;;;;8.93;68.80;101418.34;5015246;28;20049;-65
2022/02/05 02:43:30;;;;;;;28.73;20.08;;;;;;;8.89;69.05;101415.00;5014930;28;20054;-65
2022/02/05 02:45:57;;;;;;;31.02;20.02;;;;;;;8.90;68.98;101424.56;5014957;28;20050;-65
2022/02/05 02:48:24;;;;;;;28.20;19.70;;;;;;;8.89;69.11;101415.00;5013869;28;20046;-65
2022/02/05 02:59:08;;;;;;;29.85;19.52;;;;;;;8.88;69.07;101409.84;5014783;28;20396;-65
2022/02/05 03:01:41;;;;;;;32.17;19.75;;;;;;;8.88;69.12;101418.53;5014370;28;20427;-65
2022/02/05 03:04:07;;;;;;;28.75;20.55;;;;;;;8.89;69.15;101421.97;5013592;28;20072;-65
2022/02/05 03:06:34;;;;;;;29.65;19.80;;;;;;;8.87;69.25;101416.81;5014514;28;20050;-65
2022/02/05 03:09:01;;;;;;;26.60;19.98;;;;;;;8.86;69.19;101424.72;5014441;28;20545;-65
2022/02/05 03:11:28;;;;;;;31.02;20.45;;;;;;;8.83;69.11;101429.16;5014585;28;20085;-65
2022/02/05 03:13:55;;;;;;;32.10;20.50;;;;;;;8.83;69.34;101421.31;5014499;28;20042;-65
2022/02/05 03:16:24;;;;;;;33.90;20.60;;;;;;;8.84;69.18;101414.31;5014451;28;20049;-65
2022/02/05 03:21:24;;;;;;;27.90;19.15;;;;;;;8.81;69.37;101428.38;5013096;28;20045;-65
2022/02/05 03:23:50;;;;;;;30.13;20.08;;;;;;;8.82;69.21;101430.09;5014176;28;20544;-65
2022/02/05 03:26:17;;;;;;;30.98;19.35;;;;;;;8.81;69.28;101431.00;5014224;28;20046;-65
2022/02/05 03:28:44;;;;;;;27.02;18.90;;;;;;;8.80;69.07;101421.44;5014080;28;20072;-66
2022/02/05 03:31:10;;;;;;;25.90;19.05;;;;;;;8.80;69.16;101417.97;5013732;28;20050;-65
2022/02/05 03:33:37;;;;;;;27.27;19.40;;;;;;;8.78;69.16;101417.19;5013391;28;20046;-66
2022/02/05 03:36:04;;;;;;;29.75;19.33;;;;;;;8.78;69.08;101414.56;5014094;28;20045;-66
2022/02/05 03:38:31;;;;;;;24.08;18.92;;;;;;;8.75;69.16;101417.31;5012750;28;20161;-65
2022/02/05 03:40:57;;;;;;;28.35;18.88;;;;;;;8.79;68.94;101418.88;5013953;28;20065;-65
2022/02/05 03:43:24;;;;;;;26.52;19.73;;;;;;;8.77;69.18;101424.19;5013776;28;20096;-65
2022/02/05 03:45:51;;;;;;;27.73;20.15;;;;;;;8.79;69.13;101429.34;5013809;28;20056;-66
2022/02/05 03:48:17;;;;;;;31.88;20.67;;;;;;;8.79;68.80;101422.34;5013767;28;20093;-65
2022/02/05 03:50:44;;;;;;;35.22;22.63;;;;;;;8.81;68.93;101427.50;5013864;28;20050;-65
2022/02/05 03:53:11;;;;;;;33.85;22.25;;;;;;;8.80;68.78;101423.22;5013788;28;20426;-65
2022/02/05 03:55:37;;;;;;;37.65;23.17;;;;;;;8.81;68.78;101419.66;5012549;28;20053;-65
2022/02/05 03:58:05;;;;;;;36.53;22.65;;;;;;;8.81;68.67;101419.66;5013562;28;20446;-65
2022/02/05 04:00:31;;;;;;;35.47;22.55;;;;;;;8.79;68.62;101421.50;5013438;28;20048;-65
2022/02/05 04:02:59;;;;;;;31.70;22.23;;;;;;;8.80;68.34;101423.22;5009684;28;20092;-65
2022/02/05 04:05:26;;;;;;;34.35;22.80;;;;;;;8.80;68.41;101428.44;5010241;28;20096;-65
2022/02/05 04:07:54;;;;;;;36.65;23.13;;;;;;;8.83;68.23;101430.94;5010189;28;20053;-65
2022/02/05 04:10:28;;;;;;;32.35;23.17;;;;;;;8.82;68.05;101427.47;5010242;28;20057;-66
2022/02/05 04:16:01;;;;;;;34.72;23.90;;;;;;;8.82;67.83;101435.34;5010121;28;20081;-65
2022/02/05 04:18:27;;;;;;;40.38;25.42;;;;;;;8.83;67.62;101438.78;5010035;28;20088;-66
2022/02/05 04:20:54;;;;;;;34.17;23.05;;;;;;;8.81;67.44;101431.00;5009937;28;20045;-65
2022/02/05 04:23:21;;;;;;;35.03;23.80;;;;;;;8.80;67.45;101433.69;5009872;28;20181;-65
2022/02/05 04:25:48;;;;;;;36.25;23.77;;;;;;;8.78;67.44;101432.88;5009948;28;20096;-66
2022/02/05 04:28:14;;;;;;;36.70;23.58;;;;;;;8.75;67.47;101427.78;5008529;28;20053;-65
2022/02/05 04:30:41;;;;;;;43.67;23.90;;;;;;;8.74;67.42;101428.69;5008677;28;20502;-65
2022/02/05 04:33:08;;;;;;;33.35;23.77;;;;;;;8.73;67.54;101435.66;5010098;28;20204;-65
2022/02/05 04:35:34;;;;;;;40.92;24.05;;;;;;;8.70;67.45;101433.16;5009792;28;20053;-65
2022/02/05 04:38:04;;;;;;;35.03;23.67;;;;;;;8.71;67.33;101445.34;5009602;28;20516;-66
2022/02/05 04:40:40;;;;;;;35.05;23.63;;;;;;;8.69;67.45;101449.78;5009580;28;20493;-65
2022/02/05 04:43:18;;;;;;;31.58;23.23;;;;;;;8.67;67.32;101441.13;5009451;28;20105;-65
2022/02/05 04:56:40;;;;;;;34.25;22.70;;;;;;;8.58;67.30;101459.78;5009278;28;20046;-65
2022/02/05 05:04:38;;;;;;;35.15;22.05;;;;;;;8.51;67.22;101446.09;5008694;28;20568;-65
2022/02/05 05:10:22;;;;;;;31.98;22.23;;;;;;;8.44;67.46;101449.78;4997539;28;20049;-65
2022/02/05 05:12:57;;;;;;;36.10;23.47;;;;;;;8.44;67.39;101457.63;5009531;28;20053;-65
2022/02/05 05:20:40;;;;;;;36.03;23.23;;;;;;;8.43;67.37;101466.38;4989583;28;20050;-66
2022/02/05 05:23:07;;;;;;;32.35;21.75;;;;;;;8.38;67.54;101469.19;4989727;28;20447;-65
2022/02/05 05:25:34;;;;;;;30.88;21.90;;;;;;;8.33;67.49;101464.09;4989489;28;20042;-65
2022/02/05 05:28:01;;;;;;;35.13;22.10;;;;;;;8.32;67.46;101472.84;4989764;28;20491;-66
2022/02/05 05:30:28;;;;;;;33.75;21.63;;;;;;;8.30;67.49;101477.31;4989373;28;20054;-66
2022/02/05 05:32:54;;;;;;;29.27;20.90;;;;;;;8.30;67.49;101465.97;4989386;28;20046;-65
2022/02/05 05:35:21;;;;;;;32.20;22.02;;;;;;;8.31;67.36;101475.53;5007207;28;20096;-66
2022/02/05 05:37:49;;;;;;;29.65;22.33;;;;;;;8.31;67.28;101472.91;5009241;28;20104;-65
2022/02/05 05:40:16;;;;;;;35.03;23.05;;;;;;;8.29;67.31;101470.38;5009298;28;20498;-65
2022/02/05 05:42:49;;;;;;;32.72;21.52;;;;;;;8.30;67.47;101479.91;5008944;28;20065;-65
2022/02/05 05:47:54;;;;;;;34.00;22.38;;;;;;;8.31;67.48;101483.38;5009119;28;20046;-66
2022/02/05 05:53:04;;;;;;;35.78;22.02;;;;;;;8.29;67.36;101480.81;5008009;28;19921;-65
2022/02/05 05:55:32;;;;;;;35.75;22.67;;;;;;;8.27;67.28;101477.41;5009876;28;20498;-65
2022/02/05 05:58:00;;;;;;;35.30;21.52;;;;;;;8.26;67.37;101487.91;5012716;28;20053;-65
2022/02/05 06:00:28;;;;;;;34.70;22.80;;;;;;;8.26;67.37;101495.75;5012625;28;20459;-66
2022/02/05 06:02:54;;;;;;;34.90;23.38;;;;;;;8.26;67.37;101490.53;5012613;28;20057;-66
2022/02/05 06:05:21;;;;;;;31.48;23.00;;;;;;;8.26;67.33;101495.75;5012432;28;20560;-65
2022/02/05 06:07:48;;;;;;;36.28;22.83;;;;;;;8.28;67.56;101507.03;5012423;28;20041;-65
2022/02/05 06:10:15;;;;;;;37.47;22.58;;;;;;;8.28;67.39;101507.03;5011733;28;20064;-65
2022/02/05 06:12:50;;;;;;;31.05;21.70;;;;;;;8.27;67.54;101506.16;5012177;28;20050;-65
2022/02/05 06:15:20;;;;;;;34.67;22.35;;;;;;;8.27;67.57;101511.38;5012061;28;20052;-65
2022/02/05 06:17:49;;;;;;;38.17;22.77;;;;;;;8.27;67.51;101511.38;5012293;28;20046;-65
2022/02/05 06:20:16;;;;;;;37.05;23.27;;;;;;;8.28;67.57;101517.50;5012329;28;20041;-65
2022/02/05 06:22:43;;;;;;;35.22;22.80;;;;;;;8.26;67.73;101521.91;5011946;28;20100;-65
2022/02/05 06:25:10;;;;;;;37.20;24.05;;;;;;;8.27;67.64;101521.84;5012015;28;20053;-65
2022/02/05 06:27:37;;;;;;;36.55;24.35;;;;;;;8.27;67.71;101521.84;5010968;28;20046;-65
2022/02/05 06:30:04;;;;;;;39.22;24.85;;;;;;;8.27;67.82;101521.84;5012147;28;20058;-65
2022/02/05 06:32:31;;;;;;;38.90;24.98;;;;;;;8.24;67.78;101529.81;5011857;28;20092;-65
2022/02/05 06:34:58;;;;;;;35.15;23.73;;;;;;;8.22;68.10;101547.31;5011781;28;20103;-65
2022/02/05 06:37:25;;;;;;;35.63;22.85;;;;;;;8.19;67.91;101547.41;5011860;28;20058;-65
2022/02/05 06:39:51;;;;;;;35.33;22.58;;;;;;;8.19;67.95;101552.66;5011834;28;20049;-65
2022/02/05 06:42:18;;;;;;;35.22;23.52;;;;;;;8.16;68.07;101561.44;5012075;28;20050;-65
2022/02/05 06:44:45;;;;;;;31.17;22.13;;;;;;;8.13;67.99;101561.53;5011231;28;20104;-65
2022/02/05 06:47:11;;;;;;;35.78;23.00;;;;;;;8.12;67.74;101569.44;5011537;28;20049;-65
2022/02/05 06:49:38;;;;;;;33.53;22.23;;;;;;;8.15;67.67;101564.09;5011675;28;20088;-65
2022/02/05 06:52:07;;;;;;;36.55;23.23;;;;;;;8.14;67.57;101568.47;5011538;28;20053;-65
2022/02/05 06:54:34;;;;;;;35.72;23.08;;;;;;;8.14;67.62;101570.25;5011679;28;20054;-65
2022/02/05 06:57:01;;;;;;;32.70;22.70;;;;;;;8.11;67.61;101576.44;5011562;28;20430;-65
2022/02/05 06:59:28;;;;;;;34.80;23.08;;;;;;;8.10;67.49;101584.31;5011439;28;20049;-65
2022/02/05 07:01:54;;;;;;;32.65;23.05;;;;;;;8.08;67.72;101586.97;5010360;28;20108;-65
2022/02/05 07:04:24;;;;;;;35.45;23.15;;;;;;;8.09;67.77;101585.22;5011479;28;20100;-66
2022/02/05 07:06:54;;;;;;;34.42;23.05;;;;;;;8.07;67.64;101589.66;5011306;28;20133;-65
2022/02/05 07:09:23;;;;;;;34.13;21.52;;;;;;;8.05;67.66;101592.31;5011117;28;20054;-65
2022/02/05 07:11:52;;;;;;;37.88;22.60;;;;;;;8.06;67.43;101595.78;5011243;28;20056;-65
2022/02/05 07:14:23;;;;;;;39.35;22.85;;;;;;;8.08;67.37;101596.59;5011115;28;20056;-65
2022/02/05 07:17:07;;;;;;;34.58;22.77;;;;;;;8.10;67.37;101595.63;5010364;28;20108;-65
2022/02/05 07:19:56;;;;;;;36.50;22.23;;;;;;;8.12;67.19;101600.81;5010847;28;20045;-65
2022/02/05 07:22:25;;;;;;;34.25;22.30;;;;;;;8.17;67.22;101604.97;5010841;28;20100;-64
2022/02/05 07:30:05;;;;;;;33.75;23.23;;;;;;;8.26;67.03;101608.19;5010738;28;20058;-65
2022/02/05 07:32:51;;;;;;;35.88;23.75;;;;;;;8.33;66.70;101605.31;5010776;28;20120;-64
2022/02/05 07:35:18;;;;;;;37.83;22.70;;;;;;;8.45;66.38;101608.44;5010173;28;20536;-64
2022/02/05 07:37:45;;;;;;;36.00;22.48;;;;;;;8.53;66.17;101609.03;5011187;28;20052;-64
2022/02/05 07:40:12;;;;;;;35.88;23.70;;;;;;;8.63;66.04;101610.47;5010506;28;20046;-65
2022/02/05 07:42:38;;;;;;;34.03;23.02;;;;;;;8.76;65.70;101616.13;5010792;28;20092;-65
2022/02/05 07:45:07;;;;;;;36.60;23.08;;;;;;;8.87;65.41;101625.34;5010544;28;20505;-62
2022/02/05 07:47:34;;;;;;;33.85;24.35;;;;;;;8.98;65.14;101631.91;5010442;28;20045;-62
2022/02/05 07:50:02;;;;;;;34.63;23.02;;;;;;;9.07;64.79;101630.72;5010728;28;20057;-62
2022/02/05 07:52:28;;;;;;;38.25;24.17;;;;;;;9.16;64.75;101626.94;5010028;28;20096;-62
2022/02/05 07:54:55;;;;;;;39.20;23.17;;;;;;;9.19;64.64;101642.50;5010434;28;20046;-62
2022/02/05 07:57:22;;;;;;;39.08;24.88;;;;;;;9.23;64.61;101638.03;5010216;28;20125;-62
2022/02/05 07:59:48;;;;;;;31.10;22.63;;;;;;;9.30;64.35;101648.22;5009467;28;20042;-62
2022/02/05 08:02:15;;;;;;;41.55;25.63;;;;;;;9.39;64.22;101649.66;5010319;28;20108;-62
2022/02/05 08:04:41;;;;;;;37.75;24.88;;;;;;;9.45;64.18;101651.19;5007777;28;20044;-63
2022/02/05 08:07:09;;;;;;;39.28;25.50;;;;;;;9.53;64.16;101650.91;5005796;28;20050;-62
2022/02/05 08:09:57;;;;;;;42.33;27.35;;;;;;;9.61;64.03;101649.72;5009040;28;20041;-62
2022/02/05 08:12:25;;;;;;;37.58;26.98;;;;;;;9.71;63.92;101657.22;5009841;28;20057;-61
2022/02/05 08:14:54;;;;;;;46.60;30.15;;;;;;;9.68;64.20;101660.81;5010003;28;20390;-61
2022/02/05 08:17:26;;;;;;;39.47;28.67;;;;;;;9.60;64.48;101658.47;5009892;28;20046;-61
2022/02/05 08:19:52;;;;;;;47.47;27.23;;;;;;;9.52;64.82;101657.06;5004303;28;20400;-61
2022/02/05 08:22:25;;;;;;;44.40;27.55;;;;;;;9.57;64.77;101658.59;5009973;28;20050;-62
2022/02/05 08:24:51;;;;;;;42.80;29.10;;;;;;;9.72;64.46;101662.38;5009903;28;20099;-61
2022/02/05 08:27:18;;;;;;;49.55;29.80;;;;;;;9.99;63.80;101669.25;5009755;28;20061;-63
2022/02/05 08:30:00;;;;;;;53.22;28.75;;;;;;;10.19;63.46;101668.47;5009817;28;20414;-61
2022/02/05 08:32:28;;;;;;;54.28;29.77;;;;;;;10.36;63.05;101671.28;5009497;28;20427;-62
2022/02/05 08:34:59;;;;;;;50.28;28.77;;;;;;;10.61;62.43;101665.88;5009870;28;20061;-62
2022/02/05 08:37:30;;;;;;;45.67;27.25;;;;;;;10.74;62.20;101666.22;5009403;28;20046;-61
2022/02/05 08:39:59;;;;;;;43.03;29.00;;;;;;;10.77;61.93;101666.06;5008808;28;20052;-61
2022/02/05 08:42:26;;;;;;;40.55;27.35;;;;;;;10.91;61.62;101670.75;5009002;28;20057;-61
2022/02/05 08:44:52;;;;;;;39.55;27.77;;;;;;;11.09;61.31;101660.34;5016054;28;20053;-59
2022/02/05 08:47:19;;;;;;;44.33;27.67;;;;;;;11.25;60.96;101664.00;5016927;28;20050;-58
2022/02/05 08:49:46;;;;;;;42.22;26.95;;;;;;;11.43;60.51;101670.19;4989598;28;20038;-58
2022/02/05 08:52:13;;;;;;;43.33;28.05;;;;;;;11.43;60.33;101670.19;4989658;28;20054;-58
2022/02/05 08:54:40;;;;;;;42.70;28.27;;;;;;;11.65;60.04;101673.63;5003191;28;20100;-59
2022/02/05 08:57:09;;;;;;;39.10;26.40;;;;;;;11.83;59.49;101670.13;5009090;28;20053;-59
2022/02/05 08:59:49;;;;;;;42.95;28.33;;;;;;;11.83;59.47;101678.00;5009162;28;20128;-59
2022/02/05 09:05:09;;;;;;;41.08;26.58;;;;;;;11.55;59.80;101666.19;5009410;28;20042;-59
2022/02/05 09:07:35;;;;;;;42.13;27.67;;;;;;;11.76;59.24;101672.19;5009416;28;20049;-59
2022/02/05 09:10:23;;;;;;;39.03;27.73;;;;;;;12.02;58.56;101679.81;5007167;28;20053;-59
2022/02/05 09:15:22;;;;;;;43.15;28.63;;;;;;;12.55;57.43;101660.53;5008247;28;20046;-61
2022/02/05 09:17:49;;;;;;;44.10;27.90;;;;;;;12.73;56.85;101669.31;5008512;28;20050;-59
2022/02/05 09:20:16;;;;;;;44.83;28.00;;;;;;;12.94;56.39;101674.41;5008646;28;20136;-61
2022/02/05 09:22:43;;;;;;;39.67;27.13;;;;;;;13.15;55.85;101668.94;5008547;28;20502;-60
2022/02/05 09:25:09;;;;;;;40.72;28.13;;;;;;;13.29;55.37;101666.41;5008342;28;20053;-61
2022/02/05 09:27:40;;;;;;;44.70;28.50;;;;;;;13.50;54.88;101663.63;5008295;28;20053;-60
2022/02/05 09:30:14;;;;;;;40.20;28.08;;;;;;;13.69;54.46;101666.94;5008992;28;20054;-60
2022/02/05 09:32:41;;;;;;;41.53;26.30;;;;;;;13.83;53.78;101660.91;5012106;28;20592;-62
2022/02/05 09:35:09;;;;;;;39.05;27.08;;;;;;;13.97;53.69;101670.69;4998344;28;20054;-61
2022/02/05 09:37:35;;;;;;;42.35;26.98;;;;;;;13.98;53.57;101674.16;5007415;28;20048;-60
2022/02/05 09:40:04;;;;;;;39.17;26.90;;;;;;;13.64;54.14;101670.78;4992333;28;20056;-61
2022/02/05 09:42:31;;;;;;;35.22;25.40;;;;;;;13.64;53.75;101676.06;4998139;28;20053;-60
2022/02/05 09:45:02;;;;;;;35.45;25.63;;;;;;;13.78;53.41;101677.94;5011680;28;20046;-60
2022/02/05 09:47:29;;;;;;;29.00;18.52;;;;;;;13.81;53.04;101681.22;4992909;28;20061;-59
2022/02/05 09:49:56;;;;;;;25.30;18.17;;;;;;;13.74;52.47;101674.59;4992901;28;20050;-59
2022/02/05 09:52:25;;;;;;;26.50;18.13;;;;;;;13.73;52.01;101672.91;4994784;28;20061;-59
2022/02/05 09:54:52;;;;;;;30.45;21.17;;;;;;;13.71;51.67;101673.00;4991979;28;20062;-59
2022/02/05 09:57:19;;;;;;;28.50;19.35;;;;;;;13.72;51.64;101684.38;4992298;28;20554;-60
2022/02/05 09:59:59;;;;;;;36.55;22.80;;;;;;;13.79;51.17;101692.81;4992250;28;20517;-58
2022/02/05 10:02:36;;;;;;;30.40;20.67;;;;;;;13.78;50.93;101688.47;4993407;28;20042;-58
2022/02/05 10:05:11;;;;;;;32.75;21.92;;;;;;;13.74;51.08;101692.19;4994985;28;20043;-59
2022/02/05 10:08:08;;;;;;;32.72;21.92;;;;;;;13.36;51.20;101701.22;4992239;28;20149;-59
2022/02/05 10:10:46;;;;;;;33.05;21.48;;;;;;;13.44;51.15;101691.16;4992166;28;20165;-59
2022/02/05 10:13:18;;;;;;;32.25;22.95;;;;;;;13.47;50.84;101698.91;4991594;28;20046;-59
2022/02/05 10:15:53;;;;;;;34.13;25.00;;;;;;;13.59;51.17;101707.09;4992778;28;20384;-58
2022/02/05 10:18:28;;;;;;;36.78;25.35;;;;;;;13.65;50.99;101712.00;4992429;28;20462;-58
2022/02/05 10:21:01;;;;;;;42.33;29.13;;;;;;;13.69;51.20;101700.38;4992674;28;20042;-58
2022/02/05 10:23:30;;;;;;;44.35;30.85;;;;;;;13.82;50.98;101700.56;4992333;28;20686;-58
2022/02/05 10:25:57;;;;;;;40.20;29.80;;;;;;;13.80;51.07;101698.03;4991667;28;20137;-59
2022/02/05 10:28:24;;;;;;;43.22;30.20;;;;;;;13.79;51.20;101701.59;4992048;28;20061;-59
2022/02/05 10:30:54;;;;;;;45.55;30.58;;;;;;;13.95;51.17;101698.94;4992259;28;20054;-59
2022/02/05 10:33:31;;;;;;;42.53;30.80;;;;;;;14.17;50.63;101703.00;4992125;28;20051;-59
2022/02/05 10:36:17;;;;;;;51.40;32.40;;;;;;;14.15;51.25;101699.63;5007062;28;20050;-59
2022/02/05 10:44:17;;;;;;;44.05;32.75;;;;;;;14.45;50.56;101690.88;5011350;28;20058;-59
2022/02/05 10:46:44;;;;;;;45.70;32.28;;;;;;;14.47;50.87;101692.47;5011488;28;20049;-58
2022/02/05 10:49:12;;;;;;;49.67;34.35;;;;;;;14.36;51.31;101687.84;5011509;28;20088;-59
2022/02/05 10:51:46;;;;;;;47.50;33.55;;;;;;;14.52;50.98;101685.16;5010067;28;20054;-59
2022/02/05 10:54:31;;;;;;;48.38;31.92;;;;;;;14.64;50.88;101683.63;5011227;28;20100;-61
2022/02/05 10:57:09;;;;;;;43.87;32.00;;;;;;;14.84;50.29;101698.31;5011441;28;20050;-59
2022/02/05 11:08:07;;;;;;;31.02;20.35;;;;;;;15.37;52.54;101689.84;5004287;28;20053;-61
2022/02/05 11:10:56;;;;;;;30.90;21.55;;;;;;;15.43;52.73;101686.81;5010634;28;20052;-61
2022/02/05 11:16:40;;;;;;;50.22;35.70;;;;;;;15.22;53.62;101688.16;5009553;28;20120;-61
2022/02/05 11:19:02;;;;;;;52.60;35.55;;;;;;;14.82;54.17;101694.88;4990525;28;20042;-61
2022/02/05 11:21:47;;;;;;;49.30;35.08;;;;;;;14.72;53.56;101695.53;4995838;28;20054;-61
2022/02/05 11:24:15;;;;;;;81.63;58.67;;;;;;;15.00;52.50;101690.28;4992373;28;20054;-61
2022/02/05 11:26:43;;;;;;;50.47;35.97;;;;;;;15.28;51.34;101685.13;4990405;28;20403;-63
2022/02/05 11:29:26;;;;;;;55.67;35.70;;;;;;;15.57;50.40;101682.47;5011052;28;20050;-61
2022/02/05 11:31:55;;;;;;;57.78;42.50;;;;;;;15.77;49.89;101681.19;5030471;28;20045;-61
2022/02/05 11:34:32;;;;;;;51.67;37.15;;;;;;;15.80;49.81;101686.31;5030282;28;20058;-61
2022/02/05 11:37:07;;;;;;;47.28;34.08;;;;;;;15.76;49.42;101680.34;5030474;28;20041;-60
2022/02/05 11:39:43;;;;;;;53.22;34.05;;;;;;;15.87;48.86;101673.56;5015438;28;20064;-63
2022/02/05 11:42:25;;;;;;;;;;;;;;;16.04;48.22;101683.06;5010765;28;20057;-63
2022/02/05 11:44:55;;;;;;;50.03;35.53;;;;;;;16.23;48.21;101675.59;5010419;28;19984;-63
2022/02/05 11:47:24;;;;;;;45.63;31.85;;;;;;;15.94;48.48;101677.50;5010501;28;20049;-66
2022/02/05 11:49:50;;;;;;;43.25;31.65;;;;;;;15.53;49.05;101681.81;5010579;28;20073;-65
2022/02/05 11:52:36;;;;;;;45.08;31.83;;;;;;;15.93;48.30;101684.59;5010057;28;20049;-66
2022/02/05 11:55:04;;;;;;;47.00;31.77;;;;;;;16.13;47.49;101682.47;5008926;28;20049;-65
2022/02/05 11:57:43;;;;;;;44.80;32.13;;;;;;;16.35;47.01;101683.69;5010026;28;20046;-66
2022/02/05 12:00:10;;;;;;;48.78;33.50;;;;;;;16.43;46.71;101673.44;5010266;28;20050;-65
2022/02/05 12:02:43;;;;;;;48.22;33.97;;;;;;;16.55;46.60;101671.78;5009925;28;20418;-64
2022/02/05 12:05:19;;;;;;;41.67;32.40;;;;;;;16.48;46.94;101669.53;5010101;28;20056;-64
2022/02/05 12:08:04;;;;;;;45.17;32.00;;;;;;;16.44;46.53;101665.41;5010097;28;20049;-64
2022/02/05 12:10:39;;;;;;;45.47;32.20;;;;;;;16.53;46.73;101663.94;5008817;28;20060;-64
2022/02/05 12:13:16;;;;;;;44.33;31.83;;;;;;;16.62;46.28;101659.78;5009992;28;20104;-64
2022/02/05 12:15:47;;;;;;;47.88;34.78;;;;;;;16.60;46.50;101659.91;5009568;28;20048;-64
2022/02/05 12:18:24;;;;;;;49.38;33.88;;;;;;;16.49;46.68;101649.19;5010340;28;20387;-64
2022/02/05 12:21:00;;;;;;;46.15;32.97;;;;;;;16.57;46.30;101651.31;5009579;28;20042;-64
2022/02/05 12:26:25;;;;;;;47.80;35.88;;;;;;;16.88;45.89;101662.50;5010084;28;20121;-62
2022/02/05 12:28:56;;;;;;;45.28;32.60;;;;;;;16.83;45.63;101657.50;5008797;28;20057;-63
2022/02/05 12:31:26;;;;;;;43.90;32.38;;;;;;;16.89;45.14;101646.47;5009457;28;20046;-64
2022/02/05 12:34:07;;;;;;;46.75;32.35;;;;;;;16.93;45.13;101650.63;5009684;28;20050;-65
2022/02/05 12:36:38;;;;;;;43.45;31.08;;;;;;;17.09;44.58;101658.38;5009310;28;20544;-64
2022/02/05 12:39:15;;;;;;;47.42;31.45;;;;;;;17.18;44.26;101654.25;5009624;28;20048;-62
2022/02/05 12:41:54;;;;;;;45.80;31.15;;;;;;;17.20;44.38;101648.81;5009815;28;20482;-62
2022/02/05 12:44:23;;;;;;;41.90;29.98;;;;;;;17.29;43.87;101641.06;5008257;28;20096;-63
2022/02/05 12:47:05;;;;;;;43.85;29.50;;;;;;;17.05;44.09;101638.34;5009378;28;20447;-62
2022/02/05 12:49:44;;;;;;;43.40;29.60;;;;;;;17.10;44.20;101644.16;5009486;28;20108;-63
2022/02/05 12:52:12;;;;;;;39.47;28.63;;;;;;;17.08;43.65;101646.06;5009346;28;20050;-63
2022/02/05 12:54:48;;;;;;;44.05;32.28;;;;;;;17.03;44.14;101634.94;5009210;28;20058;-62
2022/02/05 12:57:17;;;;;;;38.67;29.95;;;;;;;16.99;43.95;101633.47;5009437;28;20081;-62
2022/02/05 12:59:44;;;;;;;44.75;31.35;;;;;;;17.13;43.89;101625.38;5009800;28;20073;-63
2022/02/05 13:02:12;;;;;;;43.30;28.17;;;;;;;17.31;43.69;101627.69;5008124;28;20100;-63
2022/02/05 13:04:45;;;;;;;40.05;27.88;;;;;;;17.36;43.10;101622.91;5009108;28;20112;-62
2022/02/05 13:07:22;;;;;;;40.93;29.07;;;;;;;17.36;42.87;101624.72;5009432;28;20112;-64
2022/02/05 13:09:58;;;;;;;37.88;26.90;;;;;;;17.51;42.68;101622.75;5003403;28;20051;-63
2022/02/05 13:12:30;;;;;;;36.65;26.88;;;;;;;17.62;42.16;101628.13;4997841;28;20124;-62
2022/02/05 13:17:41;;;;;;;38.20;27.58;;;;;;;17.68;42.13;101637.47;4994324;28;20050;-63
2022/02/05 13:29:14;;;;;;;43.03;28.95;;;;;;;17.46;42.12;101642.50;4989150;28;20051;-62
2022/02/05 13:34:16;;;;;;;34.83;26.58;;;;;;;17.60;42.66;101627.41;5000706;28;20054;-63
2022/02/05 13:36:56;;;;;;;36.67;27.58;;;;;;;17.63;42.22;101640.44;5009141;28;20062;-63
2022/02/05 13:44:57;;;;;;;38.28;27.65;;;;;;;17.63;41.81;101651.06;4993649;28;20053;-63
2022/02/05 13:47:36;;;;;;;38.38;27.27;;;;;;;17.68;41.71;101651.56;4989087;28;20046;-63
2022/02/05 13:50:11;;;;;;;39.25;27.38;;;;;;;17.73;41.62;101668.03;4989603;28;20090;-64
2022/02/05 13:52:42;;;;;;;41.85;29.45;;;;;;;17.69;41.41;101655.94;5002626;28;20054;-64
2022/02/05 13:55:29;;;;;;;39.20;28.90;;;;;;;17.73;41.56;101662.72;5008875;28;20572;-64
2022/02/05 13:58:10;;;;;;;39.00;29.45;;;;;;;17.69;41.55;101657.75;5006505;28;20053;-64
2022/02/05 14:01:02;;;;;;;38.53;28.20;;;;;;;17.63;41.58;101659.03;5008462;28;20092;-65
2022/02/05 14:03:30;;;;;;;34.63;27.88;;;;;;;17.58;41.86;101658.50;4997390;28;20065;-65
2022/02/05 14:06:09;;;;;;;38.35;27.45;;;;;;;17.63;41.22;101667.00;4989241;28;20554;-65
2022/02/05 14:08:52;;;;;;;37.45;28.05;;;;;;;17.66;41.41;101658.81;5002444;28;20078;-64
2022/02/05 14:11:33;;;;;;;29.73;16.65;;;;;;;17.89;42.45;101657.16;5008627;28;20082;-66
2022/02/05 14:14:02;;;;;;;35.25;20.27;;;;;;;17.80;43.23;101660.44;5008586;28;20046;-65
2022/02/05 14:16:30;;;;;;;28.85;18.38;;;;;;;17.96;43.38;101652.25;5009638;28;20053;-65
2022/02/05 14:18:59;;;;;;;27.60;17.58;;;;;;;18.02;44.25;101665.09;4995388;28;20046;-65
2022/02/05 14:21:29;;;;;;;37.78;26.73;;;;;;;17.74;44.73;101667.06;5008267;28;20052;-66
2022/02/05 14:23:57;;;;;;;38.03;27.10;;;;;;;17.74;43.72;101660.94;5011169;28;20088;-65
2022/02/05 14:26:36;;;;;;;37.00;27.42;;;;;;;17.68;43.49;101658.72;5011517;28;20064;-65
2022/02/05 14:29:04;;;;;;;39.22;29.50;;;;;;;17.63;43.21;101665.16;5011639;28;20133;-65
2022/02/05 14:31:47;;;;;;;35.58;27.67;;;;;;;17.51;43.33;101666.06;4999403;28;20545;-65